Time;durP1;ratioP1;P1;durP2;ratioP2;P2;SDS_P1;SDS_P2;PMS_P1;PMS_P2;Temp;Humidity;BMP_temperature;BMP_pressure;BME280_temperature;BME280_humidity;BME280_pressure;Samples;Min_cycle;Max_cycle;Signal;HPM_P1;HPM_P2
2021/11/07 00:00:42;;;;;;;5.25;4.75;;;10.80;89.10;;;;;;5090922;28;20081;-76
2021/11/07 00:03:17;;;;;;;5.40;4.70;;;10.70;89.40;;;;;;5075194;28;20074;-77
2021/11/07 00:11:05;;;;;;;4.93;4.40;;;10.70;89.80;;;;;;5075394;28;20037;-76
2021/11/07 00:13:31;;;;;;;6.10;4.70;;;10.70;89.80;;;;;;5075010;28;20044;-77
2021/11/07 00:16:04;;;;;;;4.90;4.50;;;10.70;90.00;;;;;;5090525;28;20051;-76
2021/11/07 00:18:44;;;;;;;5.22;4.75;;;10.70;90.00;;;;;;5090554;28;20061;-76
2021/11/07 00:21:21;;;;;;;4.93;4.40;;;10.70;90.00;;;;;;5090234;28;20013;-76
2021/11/07 00:23:59;;;;;;;4.65;4.25;;;10.70;90.00;;;;;;5090419;28;20067;-77
2021/11/07 00:26:33;;;;;;;6.22;4.60;;;10.60;90.00;;;;;;5074911;28;20058;-77
2021/11/07 00:29:06;;;;;;;5.68;5.03;;;10.70;90.00;;;;;;5090289;28;20036;-77
2021/11/07 00:39:35;;;;;;;4.60;4.10;;;10.60;90.30;;;;;;5073693;28;20028;-77
2021/11/07 00:42:11;;;;;;;4.93;4.45;;;10.60;90.30;;;;;;5074360;28;20103;-77
2021/11/07 00:50:17;;;;;;;4.35;3.80;;;10.70;90.30;;;;;;5074686;28;20549;-76
2021/11/07 00:52:57;;;;;;;4.65;4.20;;;10.70;90.30;;;;;;5089796;28;20016;-76
2021/11/07 01:01:14;;;;;;;6.70;5.18;;;10.70;90.40;;;;;;5074126;28;20024;-76
2021/11/07 01:03:41;;;;;;;5.20;4.70;;;10.70;90.40;;;;;;5089656;28;20027;-76
2021/11/07 01:06:07;;;;;;;5.18;4.68;;;10.70;90.50;;;;;;5089417;28;20059;-77
2021/11/07 01:08:33;;;;;;;5.45;4.70;;;10.70;90.50;;;;;;5089504;28;20021;-76
2021/11/07 01:11:00;;;;;;;6.10;5.45;;;10.70;90.50;;;;;;5073929;28;20028;-76
2021/11/07 01:13:27;;;;;;;5.80;5.22;;;10.70;90.50;;;;;;5089367;28;20027;-76
2021/11/07 01:15:53;;;;;;;5.60;5.10;;;10.70;90.60;;;;;;5089411;28;20028;-76
2021/11/07 01:18:19;;;;;;;5.45;4.95;;;10.70;90.60;;;;;;5089379;28;20473;-76
2021/11/07 01:20:45;;;;;;;4.95;4.43;;;10.70;90.60;;;;;;5073831;28;20423;-76
2021/11/07 01:23:26;;;;;;;5.35;4.60;;;10.70;90.60;;;;;;5089307;28;20070;-76
2021/11/07 01:25:57;;;;;;;5.38;4.78;;;10.80;90.50;;;;;;5073630;28;20071;-76
2021/11/07 01:28:25;;;;;;;5.97;5.45;;;10.80;90.50;;;;;;5073512;28;20023;-75
2021/11/07 01:30:53;;;;;;;5.72;5.22;;;10.80;90.50;;;;;;5089200;28;20145;-76
2021/11/07 01:33:23;;;;;;;5.88;5.38;;;10.80;90.50;;;;;;5089062;28;20542;-75
2021/11/07 01:38:33;;;;;;;7.13;6.28;;;10.90;90.50;;;;;;5073793;28;20033;-76
2021/11/07 01:43:26;;;;;;;7.40;6.70;;;10.90;90.50;;;;;;5073548;28;20082;-76
2021/11/07 01:46:00;;;;;;;8.38;7.47;;;10.90;90.60;;;;;;5071790;28;20070;-75
2021/11/07 01:48:29;;;;;;;7.60;6.90;;;10.90;90.60;;;;;;5075756;28;20078;-76
2021/11/07 01:50:58;;;;;;;8.00;7.30;;;10.90;90.60;;;;;;5088381;28;20119;-76
2021/11/07 01:53:34;;;;;;;7.18;6.47;;;10.90;90.60;;;;;;5088613;28;20059;-75
2021/11/07 01:56:10;;;;;;;9.32;8.43;;;10.90;90.60;;;;;;5073169;28;20020;-76
2021/11/07 01:58:37;;;;;;;9.93;7.93;;;10.90;90.70;;;;;;5089061;28;20533;-76
2021/11/07 02:01:04;;;;;;;10.00;7.32;;;10.90;90.70;;;;;;5088645;28;20020;-76
2021/11/07 02:03:31;;;;;;;11.82;8.15;;;10.90;90.70;;;;;;5073082;28;20028;-76
2021/11/07 02:05:56;;;;;;;9.35;7.93;;;11.00;90.70;;;;;;5088355;28;20036;-76
2021/11/07 02:08:22;;;;;;;8.63;7.72;;;11.00;90.70;;;;;;5078148;28;20137;-76
2021/11/07 02:10:54;;;;;;;11.27;10.07;;;11.00;91.00;;;;;;5074436;28;20070;-76
2021/11/07 02:13:20;;;;;;;12.88;10.05;;;11.00;90.70;;;;;;5088479;28;20013;-76
2021/11/07 02:15:46;;;;;;;9.73;8.73;;;11.00;90.80;;;;;;5088518;28;20626;-76
2021/11/07 02:18:12;;;;;;;10.68;9.15;;;11.00;90.80;;;;;;5088431;28;20024;-76
2021/11/07 02:20:41;;;;;;;9.57;8.68;;;11.00;90.80;;;;;;5088430;28;20491;-76
2021/11/07 02:23:11;;;;;;;11.80;9.40;;;11.00;90.90;;;;;;5072855;28;20107;-76
2021/11/07 02:25:38;;;;;;;9.30;8.25;;;11.00;90.90;;;;;;5072768;28;20497;-76
2021/11/07 02:28:06;;;;;;;11.07;9.98;;;11.00;90.90;;;;;;5088433;28;20021;-76
2021/11/07 02:30:34;;;;;;;11.82;10.45;;;11.00;90.90;;;;;;5088321;28;20373;-76
2021/11/07 02:33:00;;;;;;;11.20;10.10;;;11.00;91.00;;;;;;5072629;28;20107;-77
2021/11/07 02:35:27;;;;;;;11.88;10.65;;;11.00;91.10;;;;;;5088286;28;20064;-76
2021/11/07 02:37:57;;;;;;;11.70;10.32;;;11.00;91.10;;;;;;5088327;28;20031;-77
2021/11/07 02:40:24;;;;;;;11.38;10.18;;;11.00;91.10;;;;;;5072568;28;20093;-76
2021/11/07 02:42:50;;;;;;;11.60;10.15;;;11.00;91.20;;;;;;5088213;28;20020;-76
2021/11/07 02:45:18;;;;;;;10.35;8.93;;;11.00;91.20;;;;;;5088207;28;20392;-76
2021/11/07 02:47:45;;;;;;;11.00;9.80;;;11.00;91.20;;;;;;5088150;28;20020;-76
2021/11/07 02:50:12;;;;;;;11.50;9.88;;;11.00;91.20;;;;;;5088163;28;20017;-77
2021/11/07 02:52:38;;;;;;;14.13;10.43;;;11.00;91.20;;;;;;5088194;28;20112;-76
2021/11/07 02:55:05;;;;;;;14.13;11.95;;;11.10;91.30;;;;;;5072492;28;20052;-76
2021/11/07 02:57:31;;;;;;;13.77;11.65;;;11.10;91.30;;;;;;5072495;28;20104;-77
2021/11/07 02:59:59;;;;;;;12.10;10.75;;;11.10;91.40;;;;;;5072640;28;20052;-77
2021/11/07 03:02:26;;;;;;;11.32;10.13;;;11.10;91.40;;;;;;5072797;28;20476;-77
2021/11/07 03:04:52;;;;;;;11.73;9.52;;;11.10;91.40;;;;;;5091848;28;20028;-76
2021/11/07 03:07:18;;;;;;;10.65;9.15;;;11.10;91.40;;;;;;5076074;28;20115;-77
2021/11/07 03:09:43;;;;;;;12.23;10.23;;;11.10;91.30;;;;;;5091839;28;20035;-77
2021/11/07 03:12:11;;;;;;;12.57;10.15;;;11.10;91.30;;;;;;5076051;28;20107;-76
2021/11/07 03:14:48;;;;;;;11.85;10.30;;;11.10;91.30;;;;;;5091697;28;20031;-76
2021/11/07 03:17:17;;;;;;;11.35;10.18;;;11.20;91.30;;;;;;5091569;28;20070;-77
2021/11/07 03:19:43;;;;;;;14.23;11.13;;;11.20;91.60;;;;;;5076013;28;20094;-76
2021/11/07 03:22:11;;;;;;;15.82;13.00;;;11.20;91.30;;;;;;5091531;28;20024;-76
2021/11/07 03:24:40;;;;;;;15.02;12.82;;;11.20;91.40;;;;;;5091476;28;20028;-76
2021/11/07 03:27:16;;;;;;;14.35;11.77;;;11.20;91.50;;;;;;5075741;28;20029;-76
2021/11/07 03:29:53;;;;;;;12.68;11.23;;;11.20;91.50;;;;;;5075822;28;20017;-77
2021/11/07 03:32:22;;;;;;;15.48;10.88;;;11.20;91.50;;;;;;5091353;28;20013;-77
2021/11/07 03:34:55;;;;;;;12.32;9.88;;;11.30;91.50;;;;;;5075797;28;20099;-77
2021/11/07 03:37:23;;;;;;;12.15;9.77;;;11.30;91.50;;;;;;5091354;28;20094;-77
2021/11/07 03:39:51;;;;;;;13.02;10.23;;;11.30;91.40;;;;;;5075538;28;20020;-76
2021/11/07 03:42:18;;;;;;;13.35;10.65;;;11.30;91.40;;;;;;5075555;28;20031;-77
2021/11/07 03:44:43;;;;;;;14.40;10.52;;;11.30;91.40;;;;;;5091018;28;20024;-77
2021/11/07 03:47:10;;;;;;;15.90;11.48;;;11.40;91.40;;;;;;5075483;28;20431;-77
2021/11/07 03:49:38;;;;;;;14.60;11.05;;;11.40;91.40;;;;;;5091007;28;20020;-76
2021/11/07 03:52:05;;;;;;;13.85;10.52;;;11.40;91.50;;;;;;5090987;28;20017;-76
2021/11/07 03:54:31;;;;;;;17.33;11.55;;;11.40;91.50;;;;;;5075421;28;20099;-76
2021/11/07 03:57:02;;;;;;;14.88;11.25;;;11.40;91.50;;;;;;5090780;28;20107;-76
2021/11/07 03:59:28;;;;;;;18.38;11.05;;;11.40;91.50;;;;;;5075346;28;20503;-76
2021/11/07 04:05:16;;;;;;;13.95;8.90;;;11.40;91.60;;;;;;5075191;28;20035;-76
2021/11/07 04:07:42;;;;;;;9.90;6.57;;;11.40;91.60;;;;;;5090623;28;20021;-76
2021/11/07 04:10:11;;;;;;;8.95;5.57;;;11.40;91.60;;;;;;5090619;28;20032;-77
2021/11/07 04:12:37;;;;;;;8.13;4.75;;;11.40;91.60;;;;;;5090601;28;20044;-76
2021/11/07 04:15:04;;;;;;;9.75;4.60;;;11.40;91.50;;;;;;5090275;28;20021;-77
2021/11/07 04:17:30;;;;;;;9.30;4.13;;;11.30;91.40;;;;;;5090461;28;20395;-76
2021/11/07 04:19:56;;;;;;;11.35;4.00;;;11.30;91.40;;;;;;5074900;28;20099;-77
2021/11/07 04:25:43;;;;;;;11.02;3.58;;;11.30;91.40;;;;;;5074803;28;20400;-77
2021/11/07 04:28:08;;;;;;;10.50;3.50;;;11.20;91.30;;;;;;5074721;28;20095;-77
2021/11/07 04:30:35;;;;;;;8.55;3.20;;;11.20;91.30;;;;;;5090263;28;20101;-76
2021/11/07 04:33:01;;;;;;;8.98;2.80;;;11.20;91.30;;;;;;5090374;28;20477;-76
2021/11/07 04:35:28;;;;;;;10.77;3.08;;;11.20;91.30;;;;;;5090158;28;20123;-76
2021/11/07 04:37:55;;;;;;;10.07;2.70;;;11.20;91.30;;;;;;5090051;28;20101;-76
2021/11/07 04:40:24;;;;;;;9.95;2.50;;;11.20;91.30;;;;;;5090099;28;20016;-76
2021/11/07 04:42:50;;;;;;;9.32;2.60;;;11.20;91.30;;;;;;5089974;28;20028;-76
2021/11/07 04:45:16;;;;;;;10.63;2.78;;;11.20;91.30;;;;;;5074246;28;20488;-76
2021/11/07 04:47:43;;;;;;;11.02;2.50;;;11.20;91.20;;;;;;5089872;28;20404;-76
2021/11/07 04:50:11;;;;;;;7.70;2.50;;;11.10;91.20;;;;;;5089833;28;20020;-76
2021/11/07 04:52:37;;;;;;;8.75;2.17;;;11.20;91.20;;;;;;5074358;28;20488;-76
2021/11/07 04:55:03;;;;;;;6.10;2.03;;;11.10;91.30;;;;;;5074117;28;20024;-76
2021/11/07 04:57:29;;;;;;;10.40;2.55;;;11.10;91.10;;;;;;5089564;28;20081;-76
2021/11/07 04:59:54;;;;;;;10.85;2.35;;;11.10;91.10;;;;;;5089620;28;20119;-76
2021/11/07 05:02:20;;;;;;;12.10;2.60;;;11.10;91.10;;;;;;5089496;28;20036;-76
2021/11/07 05:04:48;;;;;;;12.00;2.88;;;11.10;91.00;;;;;;5089381;28;20021;-76
2021/11/07 05:07:13;;;;;;;14.93;2.72;;;11.10;91.00;;;;;;5073873;28;20446;-76
2021/11/07 05:09:39;;;;;;;12.27;3.22;;;11.10;91.00;;;;;;5089560;28;20103;-76
2021/11/07 05:12:05;;;;;;;8.55;2.70;;;11.10;90.90;;;;;;5089496;28;20075;-76
2021/11/07 05:14:31;;;;;;;10.02;2.45;;;11.00;90.90;;;;;;5089452;28;20047;-76
2021/11/07 05:16:56;;;;;;;11.50;2.47;;;11.00;90.90;;;;;;5073717;28;20490;-76
2021/11/07 05:19:22;;;;;;;11.95;2.38;;;11.00;90.90;;;;;;5089330;28;20523;-76
2021/11/07 05:21:48;;;;;;;10.60;2.58;;;11.00;90.90;;;;;;5089273;28;20046;-76
2021/11/07 05:24:14;;;;;;;9.65;2.70;;;11.10;90.90;;;;;;5089105;28;20020;-76
2021/11/07 05:26:40;;;;;;;11.30;2.40;;;11.10;90.80;;;;;;5088573;28;20055;-76
2021/11/07 05:29:05;;;;;;;8.77;2.40;;;11.10;90.80;;;;;;5089063;28;20074;-76
2021/11/07 05:31:32;;;;;;;9.95;2.50;;;11.10;90.70;;;;;;5073512;28;20029;-76
2021/11/07 05:33:57;;;;;;;11.73;2.30;;;11.10;90.70;;;;;;5089043;28;20020;-76
2021/11/07 05:36:24;;;;;;;10.73;2.33;;;11.10;90.70;;;;;;5088969;28;20125;-76
2021/11/07 05:38:50;;;;;;;12.45;2.30;;;11.10;90.70;;;;;;5089232;28;20070;-77
2021/11/07 05:41:15;;;;;;;11.40;2.45;;;11.10;90.60;;;;;;5105871;28;20032;-76
2021/11/07 05:43:41;;;;;;;7.13;2.20;;;11.10;90.60;;;;;;5088924;28;20029;-77
2021/11/07 05:46:07;;;;;;;10.10;2.40;;;11.10;90.50;;;;;;5088667;28;20437;-77
2021/11/07 05:48:33;;;;;;;9.77;2.95;;;11.00;90.50;;;;;;5088893;28;20472;-76
2021/11/07 05:50:59;;;;;;;8.98;2.60;;;11.00;90.50;;;;;;5088840;28;20020;-77
2021/11/07 05:53:25;;;;;;;8.07;2.50;;;11.00;90.50;;;;;;5073149;28;20028;-76
2021/11/07 05:55:52;;;;;;;6.18;2.08;;;11.00;90.40;;;;;;5072994;28;20392;-76
2021/11/07 05:58:18;;;;;;;9.93;1.92;;;11.00;90.40;;;;;;5088757;28;20494;-77
2021/11/07 06:00:45;;;;;;;10.32;2.17;;;10.90;90.30;;;;;;5073019;28;20103;-77
2021/11/07 06:03:11;;;;;;;13.75;2.95;;;10.90;90.30;;;;;;5088716;28;20113;-77
2021/11/07 06:05:36;;;;;;;8.38;2.30;;;10.90;90.30;;;;;;5088456;28;20491;-77
2021/11/07 06:08:03;;;;;;;12.32;2.40;;;10.90;90.30;;;;;;5088686;28;20480;-77
2021/11/07 06:10:29;;;;;;;8.35;2.42;;;10.90;90.20;;;;;;5088597;28;20023;-76
2021/11/07 06:12:55;;;;;;;10.80;2.38;;;10.80;90.10;;;;;;5088658;28;20024;-77
2021/11/07 06:15:21;;;;;;;14.30;3.53;;;10.80;90.10;;;;;;5088602;28;20021;-77
2021/11/07 06:17:46;;;;;;;9.32;2.20;;;10.80;90.10;;;;;;5072939;28;20032;-76
2021/11/07 06:20:12;;;;;;;10.27;2.30;;;10.70;90.10;;;;;;5088468;28;20040;-76
2021/11/07 06:22:38;;;;;;;9.45;2.42;;;10.70;90.00;;;;;;5088507;28;20054;-76
2021/11/07 06:25:04;;;;;;;10.07;2.20;;;10.60;90.00;;;;;;5072770;28;20373;-76
2021/11/07 06:27:30;;;;;;;9.45;2.20;;;10.60;89.90;;;;;;5088324;28;20078;-77
2021/11/07 06:29:57;;;;;;;10.27;2.50;;;10.50;89.90;;;;;;5071529;28;20021;-76
2021/11/07 06:32:23;;;;;;;9.18;2.42;;;10.50;90.00;;;;;;5072761;28;20025;-76
2021/11/07 06:34:48;;;;;;;8.60;2.00;;;10.40;89.90;;;;;;5088264;28;20434;-77
2021/11/07 06:37:14;;;;;;;10.65;2.25;;;10.30;90.00;;;;;;5090146;28;20028;-76
2021/11/07 06:39:40;;;;;;;8.43;2.50;;;10.30;90.00;;;;;;5092368;28;20020;-77
2021/11/07 06:42:06;;;;;;;11.75;2.30;;;10.30;89.90;;;;;;5092396;28;20392;-76
2021/11/07 06:44:34;;;;;;;5.20;1.70;;;10.30;89.80;;;;;;5076584;28;20025;-77
2021/11/07 06:47:00;;;;;;;9.48;2.45;;;10.20;89.70;;;;;;5076738;28;20431;-76
2021/11/07 06:49:27;;;;;;;11.90;2.10;;;10.20;89.60;;;;;;5092251;28;20365;-77
2021/11/07 06:51:52;;;;;;;9.82;2.08;;;10.10;89.50;;;;;;5092112;28;20021;-78
2021/11/07 06:54:18;;;;;;;10.95;2.17;;;10.10;89.50;;;;;;5092103;28;20391;-76
2021/11/07 06:56:44;;;;;;;8.77;1.83;;;10.10;89.50;;;;;;5092057;28;20016;-76
2021/11/07 06:59:09;;;;;;;8.57;1.90;;;10.00;89.50;;;;;;5092246;28;20392;-77
2021/11/07 07:01:36;;;;;;;10.15;2.40;;;10.00;89.50;;;;;;5091969;28;20021;-77
2021/11/07 07:04:04;;;;;;;10.80;2.20;;;10.00;89.50;;;;;;5091891;28;20097;-75
2021/11/07 07:06:29;;;;;;;11.63;2.47;;;10.00;89.50;;;;;;5091800;28;20131;-76
2021/11/07 07:09:07;;;;;;;8.80;2.28;;;10.00;89.50;;;;;;5091763;28;20055;-77
2021/11/07 07:14:07;;;;;;;10.02;2.22;;;9.90;89.30;;;;;;5076350;28;20039;-76
2021/11/07 07:16:54;;;;;;;8.10;2.00;;;9.90;89.30;;;;;;5075991;28;20020;-76
2021/11/07 07:22:51;;;;;;;8.57;2.55;;;9.90;89.20;;;;;;5075970;28;20438;-76
2021/11/07 07:27:19;;;;;;;9.18;2.60;;;9.90;89.00;;;;;;5076098;28;20064;-76
2021/11/07 07:35:01;;;;;;;10.27;2.45;;;10.00;88.70;;;;;;5075942;28;20063;-77
2021/11/07 07:37:26;;;;;;;17.05;2.95;;;10.10;88.40;;;;;;5091359;28;20024;-77
2021/11/07 07:39:53;;;;;;;9.38;2.10;;;10.10;88.20;;;;;;5091170;28;20027;-76
2021/11/07 07:42:20;;;;;;;9.90;2.65;;;10.10;88.20;;;;;;5075313;28;20070;-76
2021/11/07 07:44:49;;;;;;;8.50;2.30;;;10.10;88.10;;;;;;5090689;28;20047;-76
2021/11/07 07:47:15;;;;;;;10.27;2.60;;;10.10;88.00;;;;;;5075564;28;20020;-76
2021/11/07 07:49:41;;;;;;;9.73;2.45;;;10.10;88.00;;;;;;5074861;28;20039;-76
2021/11/07 07:52:07;;;;;;;11.20;2.25;;;10.10;88.00;;;;;;5090900;28;20048;-77
2021/11/07 07:54:32;;;;;;;12.38;1.95;;;10.10;88.00;;;;;;5090846;28;20055;-76
2021/11/07 07:56:58;;;;;;;11.32;2.35;;;10.10;88.00;;;;;;5090883;28;20017;-77
2021/11/07 07:59:24;;;;;;;12.25;2.42;;;10.00;88.00;;;;;;5090869;28;20025;-77
2021/11/07 08:01:51;;;;;;;11.10;2.30;;;10.10;88.10;;;;;;5090839;28;20056;-77
2021/11/07 08:04:18;;;;;;;9.80;2.35;;;10.10;88.10;;;;;;5090849;28;20495;-77
2021/11/07 08:06:44;;;;;;;18.45;2.85;;;10.10;88.10;;;;;;5090629;28;20507;-77
2021/11/07 08:09:09;;;;;;;9.38;2.35;;;10.10;88.00;;;;;;5075372;28;20017;-77
2021/11/07 08:11:35;;;;;;;11.43;2.33;;;10.10;88.00;;;;;;5090629;28;20024;-77
2021/11/07 08:14:01;;;;;;;10.80;2.30;;;10.20;87.90;;;;;;5090609;28;20021;-76
2021/11/07 08:16:28;;;;;;;8.98;2.30;;;10.20;87.80;;;;;;5090572;28;20017;-77
2021/11/07 08:18:53;;;;;;;9.65;2.50;;;10.30;87.70;;;;;;5090475;28;20480;-76
2021/11/07 08:21:20;;;;;;;9.80;2.58;;;10.40;87.50;;;;;;5090523;28;20016;-76
2021/11/07 08:23:51;;;;;;;15.25;2.95;;;10.60;86.90;;;;;;5074784;28;20024;-76
2021/11/07 08:26:17;;;;;;;19.80;3.13;;;10.70;86.60;;;;;;5090310;28;20524;-76
2021/11/07 08:28:45;;;;;;;15.13;3.05;;;10.70;85.60;;;;;;5090000;28;20021;-77
2021/11/07 08:35:01;;;;;;;10.52;2.20;;;10.70;84.70;;;;;;5075756;28;20154;-77
2021/11/07 08:37:32;;;;;;;7.88;1.95;;;10.50;84.40;;;;;;5091623;28;20028;-77
2021/11/07 08:39:59;;;;;;;12.95;2.45;;;10.40;85.00;;;;;;5090417;28;20066;-77
2021/11/07 09:02:25;;;;;;;9.70;2.55;;;10.20;86.70;;;;;;5074581;28;20144;-78
2021/11/07 09:04:58;;;;;;;10.77;2.33;;;10.20;86.80;;;;;;5090559;28;20028;-78
2021/11/07 09:09:59;;;;;;;9.32;2.38;;;10.40;86.80;;;;;;5075240;28;20024;-78
2021/11/07 09:12:27;;;;;;;9.52;2.35;;;10.50;86.50;;;;;;5090131;28;20071;-76
2021/11/07 09:14:53;;;;;;;14.05;2.97;;;10.60;86.30;;;;;;5093031;28;20028;-78
2021/11/07 09:17:20;;;;;;;14.98;2.45;;;10.80;86.20;;;;;;5075406;28;20047;-78
2021/11/07 09:19:49;;;;;;;15.77;2.72;;;10.90;85.90;;;;;;5093145;28;20020;-79
2021/11/07 09:22:43;;;;;;;14.00;2.75;;;11.10;85.40;;;;;;5116568;27;20310;-78
2021/11/07 09:25:15;;;;;;;10.13;2.30;;;11.10;85.20;;;;;;5110880;28;20022;-79
2021/11/07 09:27:45;;;;;;;11.50;2.20;;;11.20;85.10;;;;;;5110768;28;20020;-78
2021/11/07 09:40:03;;;;;;;11.25;2.55;;;11.20;84.90;;;;;;5116000;28;20031;-79
2021/11/07 09:42:56;;;;;;;9.80;2.50;;;11.20;84.70;;;;;;5109265;28;20032;-78
2021/11/07 09:45:33;;;;;;;15.18;2.95;;;11.20;84.40;;;;;;5110942;28;20490;-79
2021/11/07 09:48:08;;;;;;;12.13;2.92;;;11.30;84.30;;;;;;5111716;28;20030;-79
2021/11/07 09:50:34;;;;;;;14.98;2.67;;;11.50;84.20;;;;;;5112780;28;20027;-79
2021/11/07 09:53:01;;;;;;;11.50;2.75;;;11.60;83.70;;;;;;5112446;28;20096;-80
2021/11/07 09:55:29;;;;;;;11.27;2.45;;;11.60;83.50;;;;;;5112742;28;20035;-78
2021/11/07 09:57:57;;;;;;;12.15;2.47;;;11.70;83.20;;;;;;5110096;28;20031;-79
2021/11/07 10:00:39;;;;;;;8.45;2.40;;;11.70;83.00;;;;;;5112478;28;20361;-79
2021/11/07 10:03:05;;;;;;;13.52;2.60;;;11.60;83.10;;;;;;5112125;28;20023;-78
2021/11/07 10:05:37;;;;;;;12.10;3.00;;;11.60;83.00;;;;;;5111216;28;20020;-79
2021/11/07 10:08:04;;;;;;;10.77;2.50;;;11.60;82.70;;;;;;5112452;28;20093;-79
2021/11/07 10:10:34;;;;;;;10.77;2.40;;;11.60;82.40;;;;;;5111334;28;20123;-79
2021/11/07 10:13:14;;;;;;;14.85;2.55;;;11.60;82.30;;;;;;5111561;28;20031;-79
2021/11/07 10:15:43;;;;;;;12.15;2.92;;;11.70;82.20;;;;;;5111280;28;20032;-78
2021/11/07 10:18:14;;;;;;;11.00;2.42;;;11.80;81.80;;;;;;5110997;28;20028;-79
2021/11/07 10:24:09;;;;;;;14.13;2.70;;;12.10;81.20;;;;;;5104275;28;20089;-79
2021/11/07 10:26:37;;;;;;;13.07;2.47;;;12.10;80.40;;;;;;5110944;28;20107;-78
2021/11/07 10:29:06;;;;;;;12.23;2.80;;;12.20;80.30;;;;;;5110593;28;20030;-78
2021/11/07 10:35:39;;;;;;;11.25;2.60;;;12.20;79.70;;;;;;5099349;28;20452;-78
2021/11/07 10:42:11;;;;;;;11.38;2.40;;;12.50;79.30;;;;;;5097682;28;20046;-78
2021/11/07 10:52:33;;;;;;;9.05;2.15;;;12.70;77.10;;;;;;5097880;28;20062;-79
2021/11/07 10:55:02;;;;;;;15.23;3.47;;;12.60;76.40;;;;;;5096379;28;20105;-79
2021/11/07 10:57:31;;;;;;;14.18;3.28;;;12.60;76.60;;;;;;5097632;28;20016;-80
2021/11/07 11:00:27;;;;;;;12.30;2.55;;;12.60;76.20;;;;;;5096033;28;20024;-79
2021/11/07 11:03:05;;;;;;;9.80;2.42;;;12.60;75.70;;;;;;5096303;28;20032;-79
2021/11/07 11:08:56;;;;;;;11.35;2.40;;;12.70;75.80;;;;;;5097732;28;20099;-80
2021/11/07 11:35:13;;;;;;;13.63;2.78;;;12.60;71.60;;;;;;5097190;28;20036;-79
2021/11/07 11:37:58;;;;;;;12.68;2.67;;;12.60;71.60;;;;;;5095649;28;20050;-79
2021/11/07 11:43:02;;;;;;;16.75;2.65;;;12.50;71.40;;;;;;5096662;28;20539;-78
2021/11/07 11:45:33;;;;;;;14.90;3.67;;;12.60;70.20;;;;;;5094355;28;20020;-79
2021/11/07 11:48:46;;;;;;;11.00;2.20;;;12.60;70.00;;;;;;5096065;28;20433;-78
2021/11/07 11:57:14;;;;;;;9.38;2.47;;;12.50;71.20;;;;;;5096310;28;20530;-79
2021/11/07 12:02:29;;;;;;;11.60;2.60;;;12.40;69.60;;;;;;5096577;28;20095;-79
2021/11/07 12:05:33;;;;;;;11.88;3.10;;;12.40;70.50;;;;;;5094707;28;20091;-79
2021/11/07 12:08:20;;;;;;;12.80;2.25;;;12.40;70.10;;;;;;5094751;28;20036;-78
2021/11/07 12:16:21;;;;;;;7.22;1.63;;;12.00;72.00;;;;;;5083771;28;20042;-79
2021/11/07 12:19:08;;;;;;;7.13;2.08;;;11.80;72.60;;;;;;5094918;28;20031;-80
2021/11/07 12:21:53;;;;;;;6.25;1.67;;;11.70;73.30;;;;;;5096310;28;20054;-79
2021/11/07 12:24:22;;;;;;;7.72;1.52;;;11.60;73.80;;;;;;5094666;28;20542;-78
2021/11/07 12:26:49;;;;;;;7.70;1.70;;;11.60;74.20;;;;;;5094670;28;20480;-78
2021/11/07 12:29:37;;;;;;;8.27;2.40;;;11.60;74.70;;;;;;5094471;28;20102;-78
2021/11/07 12:32:06;;;;;;;11.63;2.30;;;11.50;74.90;;;;;;5094553;28;20020;-80
2021/11/07 12:35:03;;;;;;;8.30;2.13;;;11.50;75.20;;;;;;5094472;28;20043;-80
2021/11/07 12:44:34;;;;;;;9.07;2.05;;;11.50;76.20;;;;;;5095930;28;20027;-79
2021/11/07 12:47:09;;;;;;;10.80;2.47;;;11.60;76.20;;;;;;5083407;28;20128;-79
2021/11/07 12:49:34;;;;;;;11.90;2.20;;;11.70;76.20;;;;;;5094492;28;20506;-80
2021/11/07 12:52:06;;;;;;;8.35;1.95;;;11.80;75.90;;;;;;5094767;28;20036;-79
2021/11/07 12:54:38;;;;;;;9.43;2.25;;;11.90;75.90;;;;;;5095474;28;20032;-78
2021/11/07 12:57:12;;;;;;;8.88;2.15;;;11.90;75.80;;;;;;5094379;28;20035;-78
2021/11/07 12:59:44;;;;;;;11.45;2.15;;;11.90;75.90;;;;;;5095378;28;20051;-79
2021/11/07 13:02:13;;;;;;;11.80;2.30;;;11.90;75.70;;;;;;5096143;28;20071;-79
2021/11/07 13:04:48;;;;;;;11.57;2.47;;;12.00;75.70;;;;;;5094246;28;20024;-79
2021/11/07 13:10:11;;;;;;;11.77;2.63;;;12.10;75.50;;;;;;5096092;28;20155;-78
2021/11/07 13:15:21;;;;;;;12.32;2.42;;;12.10;76.30;;;;;;5096072;28;20049;-81
2021/11/07 13:23:46;;;;;;;13.00;2.60;;;12.10;76.90;;;;;;5095459;28;20102;-80
2021/11/07 13:26:32;;;;;;;12.40;2.97;;;12.10;77.30;;;;;;5094051;28;20433;-79
2021/11/07 13:29:19;;;;;;;14.35;2.92;;;12.00;77.70;;;;;;5094555;28;20016;-79
2021/11/07 13:32:03;;;;;;;13.27;2.50;;;12.10;77.80;;;;;;5095021;28;20593;-78
2021/11/07 13:34:30;;;;;;;14.00;2.40;;;12.10;77.80;;;;;;5094762;28;20075;-79
2021/11/07 13:36:57;;;;;;;14.50;3.38;;;12.10;78.00;;;;;;5093915;28;20032;-78
2021/11/07 13:39:33;;;;;;;15.05;2.85;;;12.00;78.00;;;;;;5095752;28;20069;-79
2021/11/07 13:42:14;;;;;;;10.15;2.80;;;12.00;78.10;;;;;;5093939;28;20030;-78
2021/11/07 13:48:22;;;;;;;13.30;3.33;;;11.70;79.70;;;;;;5075601;28;20044;-79
2021/11/07 13:50:51;;;;;;;17.70;3.47;;;11.50;79.70;;;;;;5094322;28;20424;-78
2021/11/07 13:53:22;;;;;;;15.07;3.53;;;11.40;80.20;;;;;;5092537;28;20089;-80
2021/11/07 13:55:55;;;;;;;15.02;2.97;;;11.30;80.70;;;;;;5091238;28;20091;-77
2021/11/07 13:58:24;;;;;;;16.15;3.67;;;11.20;80.80;;;;;;5091516;28;20118;-78
2021/11/07 14:04:11;;;;;;;13.00;2.72;;;11.20;81.50;;;;;;5091825;28;20055;-76
2021/11/07 14:06:38;;;;;;;18.50;3.28;;;11.00;81.20;;;;;;5074361;28;20495;-83
2021/11/07 14:09:06;;;;;;;11.30;2.80;;;10.90;81.00;;;;;;5078114;28;20039;-78
2021/11/07 14:15:14;;;;;;;12.77;2.67;;;10.40;82.40;;;;;;5094409;28;20084;-77
2021/11/07 14:17:41;;;;;;;6.93;1.85;;;10.20;82.50;;;;;;5094716;28;20036;-78
2021/11/07 14:20:07;;;;;;;10.98;2.00;;;10.00;82.70;;;;;;5094157;28;20034;-78
2021/11/07 14:22:34;;;;;;;10.73;2.00;;;9.90;83.10;;;;;;5094136;28;20028;-79
2021/11/07 14:25:06;;;;;;;8.85;2.22;;;9.80;83.50;;;;;;5096568;28;20028;-78
2021/11/07 14:27:42;;;;;;;9.13;2.08;;;9.80;83.70;;;;;;5095557;28;20055;-79
2021/11/07 14:30:15;;;;;;;6.90;1.50;;;9.70;83.90;;;;;;5095642;28;20016;-79
2021/11/07 14:32:43;;;;;;;7.55;1.80;;;9.70;83.90;;;;;;5095829;28;20024;-79
2021/11/07 14:35:20;;;;;;;5.68;1.88;;;9.70;84.00;;;;;;5094970;28;20054;-78
2021/11/07 14:40:30;;;;;;;9.95;2.67;;;9.80;84.70;;;;;;5096658;28;20385;-78
2021/11/07 14:46:10;;;;;;;13.65;2.78;;;9.90;84.70;;;;;;5097130;28;20036;-78
2021/11/07 14:51:39;;;;;;;17.60;2.78;;;9.90;85.20;;;;;;5096992;28;20179;-78
2021/11/07 15:05:06;;;;;;;13.98;3.08;;;10.10;84.80;;;;;;5097513;28;20081;-78
2021/11/07 15:07:50;;;;;;;13.10;3.17;;;10.20;84.60;;;;;;5095913;28;20472;-81
2021/11/07 15:16:34;;;;;;;13.73;2.35;;;10.20;84.20;;;;;;5096995;28;20403;-78
2021/11/07 15:19:14;;;;;;;7.95;2.40;;;10.20;84.80;;;;;;5095530;28;20024;-78
2021/11/07 15:27:31;;;;;;;12.30;2.22;;;10.30;84.10;;;;;;5096517;28;20039;-77
2021/11/07 15:29:59;;;;;;;12.43;2.90;;;10.20;83.90;;;;;;5095446;28;20024;-78
2021/11/07 15:32:29;;;;;;;12.13;2.78;;;10.20;83.80;;;;;;5096474;28;20028;-78
2021/11/07 15:34:58;;;;;;;11.75;2.50;;;10.20;83.90;;;;;;5095336;28;20103;-78
2021/11/07 15:37:28;;;;;;;9.40;2.20;;;10.10;83.70;;;;;;5095319;28;20028;-78
2021/11/07 15:39:57;;;;;;;12.25;2.20;;;10.20;83.60;;;;;;5095344;28;20483;-78
2021/11/07 15:42:30;;;;;;;7.70;2.45;;;10.10;83.60;;;;;;5095166;28;20036;-78
2021/11/07 15:45:04;;;;;;;14.10;3.42;;;10.20;83.40;;;;;;5093483;28;20032;-78
2021/11/07 15:47:38;;;;;;;11.65;2.25;;;10.20;83.10;;;;;;5093321;28;20020;-78
2021/11/07 15:50:19;;;;;;;8.77;2.22;;;10.10;82.90;;;;;;5093617;28;20039;-78
2021/11/07 16:00:27;;;;;;;12.15;2.75;;;9.90;83.10;;;;;;5094174;28;20036;-78
2021/11/07 16:08:04;;;;;;;8.00;2.17;;;9.70;83.20;;;;;;5094563;28;20059;-79
2021/11/07 16:10:57;;;;;;;10.80;2.80;;;9.70;83.20;;;;;;5092960;28;20028;-78
2021/11/07 16:13:44;;;;;;;10.63;2.95;;;9.60;83.30;;;;;;5094275;28;20444;-78
2021/11/07 16:18:44;;;;;;;10.05;2.55;;;9.50;83.50;;;;;;5094380;28;20071;-78
2021/11/07 16:21:14;;;;;;;7.80;2.60;;;9.50;83.60;;;;;;5092850;28;20028;-77
2021/11/07 16:23:40;;;;;;;9.23;2.45;;;9.40;83.60;;;;;;5092552;28;20044;-78
2021/11/07 16:26:11;;;;;;;13.68;2.95;;;9.40;83.80;;;;;;5089656;28;20028;-79
2021/11/07 16:28:38;;;;;;;14.50;2.80;;;9.40;83.80;;;;;;5094268;28;20157;-78
2021/11/07 16:31:08;;;;;;;8.80;2.78;;;9.40;83.90;;;;;;5092422;28;20055;-78
2021/11/07 16:33:39;;;;;;;9.68;2.60;;;9.40;84.00;;;;;;5093373;28;20387;-79
2021/11/07 16:36:10;;;;;;;9.85;2.55;;;9.40;84.00;;;;;;5076645;28;20114;-78
2021/11/07 16:41:29;;;;;;;11.30;2.75;;;9.40;84.10;;;;;;5093761;28;20513;-78